sensor_id;sensor_type;location;lat;lon;timestamp;P1;durP1;ratioP1;P2;durP2;ratioP2
71937;SDS011;59810;48.800;9.086;2022-08-19T00:01:34;15.27;;;9.70;;
71937;SDS011;59810;48.800;9.086;2022-08-19T00:04:06;17.88;;;10.52;;
71937;SDS011;59810;48.800;9.086;2022-08-19T00:06:33;15.38;;;10.13;;
71937;SDS011;59810;48.800;9.086;2022-08-19T00:09:02;16.48;;;10.73;;
71937;SDS011;59810;48.800;9.086;2022-08-19T00:11:29;16.67;;;10.07;;
71937;SDS011;59810;48.800;9.086;2022-08-19T00:13:55;17.67;;;10.77;;
71937;SDS011;59810;48.800;9.086;2022-08-19T00:16:21;16.13;;;10.02;;
71937;SDS011;59810;48.800;9.086;2022-08-19T00:18:48;18.08;;;11.57;;
71937;SDS011;59810;48.800;9.086;2022-08-19T00:21:14;17.27;;;10.23;;
71937;SDS011;59810;48.800;9.086;2022-08-19T00:23:40;19.23;;;11.07;;
71937;SDS011;59810;48.800;9.086;2022-08-19T00:26:06;16.63;;;10.60;;
71937;SDS011;59810;48.800;9.086;2022-08-19T00:28:32;16.60;;;10.50;;
71937;SDS011;59810;48.800;9.086;2022-08-19T00:31:00;16.30;;;10.35;;
71937;SDS011;59810;48.800;9.086;2022-08-19T00:33:26;16.73;;;10.53;;
71937;SDS011;59810;48.800;9.086;2022-08-19T00:35:52;18.25;;;10.77;;
71937;SDS011;59810;48.800;9.086;2022-08-19T00:38:20;16.33;;;10.75;;
71937;SDS011;59810;48.800;9.086;2022-08-19T00:40:47;17.25;;;10.27;;
71937;SDS011;59810;48.800;9.086;2022-08-19T00:43:17;17.70;;;10.37;;
71937;SDS011;59810;48.800;9.086;2022-08-19T00:45:46;16.42;;;10.40;;
71937;SDS011;59810;48.800;9.086;2022-08-19T00:48:12;17.20;;;10.52;;
71937;SDS011;59810;48.800;9.086;2022-08-19T00:50:39;17.05;;;10.57;;
71937;SDS011;59810;48.800;9.086;2022-08-19T00:53:08;17.17;;;10.30;;
71937;SDS011;59810;48.800;9.086;2022-08-19T00:55:36;16.77;;;10.80;;
71937;SDS011;59810;48.800;9.086;2022-08-19T00:58:05;18.52;;;10.90;;
71937;SDS011;59810;48.800;9.086;2022-08-19T01:00:35;17.30;;;10.48;;
71937;SDS011;59810;48.800;9.086;2022-08-19T01:03:06;18.00;;;10.93;;
71937;SDS011;59810;48.800;9.086;2022-08-19T01:05:34;16.70;;;10.93;;
71937;SDS011;59810;48.800;9.086;2022-08-19T01:08:00;19.03;;;11.40;;
71937;SDS011;59810;48.800;9.086;2022-08-19T01:10:30;19.25;;;11.23;;
71937;SDS011;59810;48.800;9.086;2022-08-19T01:13:00;19.15;;;11.48;;
71937;SDS011;59810;48.800;9.086;2022-08-19T01:15:29;15.50;;;10.43;;
71937;SDS011;59810;48.800;9.086;2022-08-19T01:17:57;16.17;;;10.20;;
71937;SDS011;59810;48.800;9.086;2022-08-19T01:20:26;16.60;;;10.33;;
71937;SDS011;59810;48.800;9.086;2022-08-19T01:22:55;17.98;;;10.57;;
71937;SDS011;59810;48.800;9.086;2022-08-19T01:25:24;19.30;;;11.80;;
71937;SDS011;59810;48.800;9.086;2022-08-19T01:27:56;18.92;;;11.77;;
71937;SDS011;59810;48.800;9.086;2022-08-19T01:30:29;19.17;;;11.10;;
71937;SDS011;59810;48.800;9.086;2022-08-19T01:32:57;16.85;;;10.73;;
71937;SDS011;59810;48.800;9.086;2022-08-19T01:35:25;17.63;;;11.80;;
71937;SDS011;59810;48.800;9.086;2022-08-19T01:40:26;20.73;;;12.27;;
71937;SDS011;59810;48.800;9.086;2022-08-19T01:42:56;19.67;;;11.60;;
71937;SDS011;59810;48.800;9.086;2022-08-19T01:45:22;20.52;;;11.68;;
71937;SDS011;59810;48.800;9.086;2022-08-19T01:47:49;19.65;;;11.75;;
71937;SDS011;59810;48.800;9.086;2022-08-19T01:50:15;19.90;;;12.07;;
71937;SDS011;59810;48.800;9.086;2022-08-19T01:52:42;20.85;;;12.65;;
71937;SDS011;59810;48.800;9.086;2022-08-19T01:55:10;23.50;;;12.82;;
71937;SDS011;59810;48.800;9.086;2022-08-19T01:57:41;18.85;;;11.50;;
71937;SDS011;59810;48.800;9.086;2022-08-19T02:00:12;19.23;;;12.15;;
71937;SDS011;59810;48.800;9.086;2022-08-19T02:02:40;19.53;;;12.20;;
71937;SDS011;59810;48.800;9.086;2022-08-19T02:05:06;21.73;;;12.00;;
71937;SDS011;59810;48.800;9.086;2022-08-19T02:07:33;18.88;;;11.88;;
71937;SDS011;59810;48.800;9.086;2022-08-19T02:10:01;19.05;;;12.13;;
71937;SDS011;59810;48.800;9.086;2022-08-19T02:12:34;21.77;;;12.25;;
71937;SDS011;59810;48.800;9.086;2022-08-19T02:15:00;26.73;;;13.87;;
71937;SDS011;59810;48.800;9.086;2022-08-19T02:17:27;23.77;;;12.93;;
71937;SDS011;59810;48.800;9.086;2022-08-19T02:19:55;22.17;;;12.52;;
71937;SDS011;59810;48.800;9.086;2022-08-19T02:22:23;23.10;;;13.03;;
71937;SDS011;59810;48.800;9.086;2022-08-19T02:24:55;23.30;;;13.18;;
71937;SDS011;59810;48.800;9.086;2022-08-19T02:27:21;22.52;;;13.32;;
71937;SDS011;59810;48.800;9.086;2022-08-19T02:29:48;21.63;;;12.97;;
71937;SDS011;59810;48.800;9.086;2022-08-19T02:32:15;21.58;;;13.57;;
71937;SDS011;59810;48.800;9.086;2022-08-19T02:34:41;22.02;;;14.23;;
71937;SDS011;59810;48.800;9.086;2022-08-19T02:37:07;24.03;;;13.83;;
71937;SDS011;59810;48.800;9.086;2022-08-19T02:39:55;20.38;;;12.68;;
71937;SDS011;59810;48.800;9.086;2022-08-19T02:42:24;23.33;;;13.25;;
71937;SDS011;59810;48.800;9.086;2022-08-19T02:44:49;23.53;;;13.17;;
71937;SDS011;59810;48.800;9.086;2022-08-19T02:47:16;23.27;;;13.52;;
71937;SDS011;59810;48.800;9.086;2022-08-19T02:49:45;23.00;;;14.52;;
71937;SDS011;59810;48.800;9.086;2022-08-19T02:52:10;23.63;;;14.52;;
71937;SDS011;59810;48.800;9.086;2022-08-19T02:54:36;24.23;;;13.82;;
71937;SDS011;59810;48.800;9.086;2022-08-19T02:57:03;23.63;;;13.53;;
71937;SDS011;59810;48.800;9.086;2022-08-19T02:59:33;25.02;;;13.77;;
71937;SDS011;59810;48.800;9.086;2022-08-19T03:01:59;26.42;;;15.52;;
71937;SDS011;59810;48.800;9.086;2022-08-19T03:04:27;24.23;;;14.77;;
71937;SDS011;59810;48.800;9.086;2022-08-19T03:06:54;25.10;;;14.87;;
71937;SDS011;59810;48.800;9.086;2022-08-19T03:09:20;24.48;;;15.05;;
71937;SDS011;59810;48.800;9.086;2022-08-19T03:11:45;24.70;;;15.23;;
71937;SDS011;59810;48.800;9.086;2022-08-19T03:14:11;28.47;;;14.50;;
71937;SDS011;59810;48.800;9.086;2022-08-19T03:16:45;24.27;;;15.07;;
71937;SDS011;59810;48.800;9.086;2022-08-19T03:19:13;24.52;;;14.52;;
71937;SDS011;59810;48.800;9.086;2022-08-19T03:21:42;25.13;;;14.88;;
71937;SDS011;59810;48.800;9.086;2022-08-19T03:24:12;24.35;;;15.38;;
71937;SDS011;59810;48.800;9.086;2022-08-19T03:26:42;24.90;;;14.53;;
71937;SDS011;59810;48.800;9.086;2022-08-19T03:29:09;25.55;;;15.38;;
71937;SDS011;59810;48.800;9.086;2022-08-19T03:31:36;27.25;;;15.93;;
71937;SDS011;59810;48.800;9.086;2022-08-19T03:34:05;24.67;;;14.80;;
71937;SDS011;59810;48.800;9.086;2022-08-19T03:36:31;29.23;;;15.80;;
71937;SDS011;59810;48.800;9.086;2022-08-19T03:38:58;26.83;;;16.03;;
71937;SDS011;59810;48.800;9.086;2022-08-19T03:41:28;25.67;;;16.35;;
71937;SDS011;59810;48.800;9.086;2022-08-19T03:43:56;26.50;;;15.75;;
71937;SDS011;59810;48.800;9.086;2022-08-19T03:46:24;25.73;;;16.20;;
71937;SDS011;59810;48.800;9.086;2022-08-19T03:48:52;27.77;;;16.73;;
71937;SDS011;59810;48.800;9.086;2022-08-19T03:51:26;29.90;;;17.40;;
71937;SDS011;59810;48.800;9.086;2022-08-19T03:53:55;26.05;;;16.83;;
71937;SDS011;59810;48.800;9.086;2022-08-19T03:56:21;29.42;;;17.85;;
71937;SDS011;59810;48.800;9.086;2022-08-19T03:58:47;28.63;;;17.98;;
71937;SDS011;59810;48.800;9.086;2022-08-19T04:01:15;28.50;;;16.87;;
71937;SDS011;59810;48.800;9.086;2022-08-19T04:03:48;30.33;;;17.77;;
71937;SDS011;59810;48.800;9.086;2022-08-19T04:06:16;29.95;;;17.63;;
71937;SDS011;59810;48.800;9.086;2022-08-19T04:08:44;29.50;;;17.37;;
71937;SDS011;59810;48.800;9.086;2022-08-19T04:11:12;28.52;;;17.63;;
71937;SDS011;59810;48.800;9.086;2022-08-19T04:13:43;27.58;;;17.30;;
71937;SDS011;59810;48.800;9.086;2022-08-19T04:16:09;28.73;;;17.13;;
71937;SDS011;59810;48.800;9.086;2022-08-19T04:18:35;27.65;;;16.33;;
71937;SDS011;59810;48.800;9.086;2022-08-19T04:21:02;33.63;;;17.90;;
71937;SDS011;59810;48.800;9.086;2022-08-19T04:23:29;30.75;;;17.30;;
71937;SDS011;59810;48.800;9.086;2022-08-19T04:25:55;29.33;;;17.33;;
71937;SDS011;59810;48.800;9.086;2022-08-19T04:28:21;27.95;;;17.10;;
71937;SDS011;59810;48.800;9.086;2022-08-19T04:30:48;30.17;;;17.40;;
71937;SDS011;59810;48.800;9.086;2022-08-19T04:33:16;27.77;;;16.83;;
71937;SDS011;59810;48.800;9.086;2022-08-19T04:35:44;28.88;;;17.98;;
71937;SDS011;59810;48.800;9.086;2022-08-19T04:38:12;30.10;;;17.20;;
71937;SDS011;59810;48.800;9.086;2022-08-19T04:40:45;28.40;;;16.35;;
71937;SDS011;59810;48.800;9.086;2022-08-19T04:43:31;30.33;;;18.42;;
71937;SDS011;59810;48.800;9.086;2022-08-19T04:45:57;31.43;;;17.67;;
71937;SDS011;59810;48.800;9.086;2022-08-19T04:48:25;28.88;;;17.42;;
71937;SDS011;59810;48.800;9.086;2022-08-19T04:50:52;30.50;;;18.93;;
71937;SDS011;59810;48.800;9.086;2022-08-19T04:53:29;31.48;;;17.52;;
71937;SDS011;59810;48.800;9.086;2022-08-19T04:55:56;31.33;;;18.88;;
71937;SDS011;59810;48.800;9.086;2022-08-19T04:58:25;31.27;;;18.15;;
71937;SDS011;59810;48.800;9.086;2022-08-19T05:00:51;29.92;;;18.23;;
71937;SDS011;59810;48.800;9.086;2022-08-19T05:03:19;32.17;;;18.17;;
71937;SDS011;59810;48.800;9.086;2022-08-19T05:05:46;29.15;;;17.10;;
71937;SDS011;59810;48.800;9.086;2022-08-19T05:08:15;28.67;;;17.52;;
71937;SDS011;59810;48.800;9.086;2022-08-19T05:10:47;29.23;;;18.05;;
71937;SDS011;59810;48.800;9.086;2022-08-19T05:13:15;27.10;;;17.33;;
71937;SDS011;59810;48.800;9.086;2022-08-19T05:15:45;25.23;;;16.47;;
71937;SDS011;59810;48.800;9.086;2022-08-19T05:18:19;32.67;;;18.00;;
71937;SDS011;59810;48.800;9.086;2022-08-19T05:21:07;30.48;;;17.42;;
71937;SDS011;59810;48.800;9.086;2022-08-19T05:23:53;29.63;;;16.85;;
71937;SDS011;59810;48.800;9.086;2022-08-19T05:26:19;26.50;;;17.00;;
71937;SDS011;59810;48.800;9.086;2022-08-19T05:28:44;27.17;;;16.73;;
71937;SDS011;59810;48.800;9.086;2022-08-19T05:31:09;31.47;;;17.93;;
71937;SDS011;59810;48.800;9.086;2022-08-19T05:33:37;27.90;;;17.08;;
71937;SDS011;59810;48.800;9.086;2022-08-19T05:36:07;28.83;;;16.88;;
71937;SDS011;59810;48.800;9.086;2022-08-19T05:38:33;28.17;;;17.73;;
71937;SDS011;59810;48.800;9.086;2022-08-19T05:41:05;32.70;;;16.85;;
71937;SDS011;59810;48.800;9.086;2022-08-19T05:43:32;30.77;;;17.93;;
71937;SDS011;59810;48.800;9.086;2022-08-19T05:45:57;29.47;;;17.00;;
71937;SDS011;59810;48.800;9.086;2022-08-19T05:48:25;28.93;;;17.27;;
71937;SDS011;59810;48.800;9.086;2022-08-19T05:50:51;29.90;;;16.45;;
71937;SDS011;59810;48.800;9.086;2022-08-19T05:53:17;26.48;;;16.33;;
71937;SDS011;59810;48.800;9.086;2022-08-19T05:55:42;33.60;;;17.00;;
71937;SDS011;59810;48.800;9.086;2022-08-19T05:58:08;26.30;;;15.40;;
71937;SDS011;59810;48.800;9.086;2022-08-19T06:00:33;27.25;;;17.60;;
71937;SDS011;59810;48.800;9.086;2022-08-19T06:03:02;27.67;;;16.60;;
71937;SDS011;59810;48.800;9.086;2022-08-19T06:05:30;27.58;;;17.23;;
71937;SDS011;59810;48.800;9.086;2022-08-19T06:07:56;27.67;;;16.88;;
71937;SDS011;59810;48.800;9.086;2022-08-19T06:10:21;27.63;;;17.23;;
71937;SDS011;59810;48.800;9.086;2022-08-19T06:12:49;25.57;;;16.40;;
71937;SDS011;59810;48.800;9.086;2022-08-19T06:15:15;27.30;;;16.45;;
71937;SDS011;59810;48.800;9.086;2022-08-19T06:17:42;27.43;;;17.10;;
71937;SDS011;59810;48.800;9.086;2022-08-19T06:20:10;28.98;;;17.65;;
71937;SDS011;59810;48.800;9.086;2022-08-19T06:22:39;30.40;;;17.38;;
71937;SDS011;59810;48.800;9.086;2022-08-19T06:25:09;25.83;;;16.25;;
71937;SDS011;59810;48.800;9.086;2022-08-19T06:27:35;28.40;;;18.25;;
71937;SDS011;59810;48.800;9.086;2022-08-19T06:30:02;27.87;;;17.40;;
71937;SDS011;59810;48.800;9.086;2022-08-19T06:32:31;26.88;;;17.20;;
71937;SDS011;59810;48.800;9.086;2022-08-19T06:34:56;29.03;;;17.30;;
71937;SDS011;59810;48.800;9.086;2022-08-19T06:37:22;27.80;;;17.55;;
71937;SDS011;59810;48.800;9.086;2022-08-19T06:39:48;26.47;;;16.03;;
71937;SDS011;59810;48.800;9.086;2022-08-19T06:42:14;24.02;;;15.50;;
71937;SDS011;59810;48.800;9.086;2022-08-19T06:44:45;26.55;;;16.52;;
71937;SDS011;59810;48.800;9.086;2022-08-19T06:47:18;27.27;;;16.20;;
71937;SDS011;59810;48.800;9.086;2022-08-19T06:49:45;26.40;;;15.90;;
71937;SDS011;59810;48.800;9.086;2022-08-19T06:52:11;29.37;;;17.07;;
71937;SDS011;59810;48.800;9.086;2022-08-19T06:54:41;25.63;;;16.48;;
71937;SDS011;59810;48.800;9.086;2022-08-19T06:57:07;26.27;;;16.50;;
71937;SDS011;59810;48.800;9.086;2022-08-19T06:59:38;25.63;;;16.73;;
71937;SDS011;59810;48.800;9.086;2022-08-19T07:02:04;26.02;;;16.08;;
71937;SDS011;59810;48.800;9.086;2022-08-19T07:04:32;26.30;;;16.42;;
71937;SDS011;59810;48.800;9.086;2022-08-19T07:07:05;27.08;;;16.17;;
71937;SDS011;59810;48.800;9.086;2022-08-19T07:09:33;29.93;;;16.60;;
71937;SDS011;59810;48.800;9.086;2022-08-19T07:12:02;29.25;;;17.10;;
71937;SDS011;59810;48.800;9.086;2022-08-19T07:14:28;28.00;;;16.98;;
71937;SDS011;59810;48.800;9.086;2022-08-19T07:16:54;26.30;;;15.77;;
71937;SDS011;59810;48.800;9.086;2022-08-19T07:19:22;26.42;;;16.15;;
71937;SDS011;59810;48.800;9.086;2022-08-19T07:21:51;24.17;;;15.52;;
71937;SDS011;59810;48.800;9.086;2022-08-19T07:24:18;25.17;;;15.30;;
71937;SDS011;59810;48.800;9.086;2022-08-19T07:26:44;27.40;;;14.83;;
71937;SDS011;59810;48.800;9.086;2022-08-19T07:29:13;24.27;;;14.95;;
71937;SDS011;59810;48.800;9.086;2022-08-19T07:31:44;24.92;;;15.63;;
71937;SDS011;59810;48.800;9.086;2022-08-19T07:34:12;24.83;;;15.57;;
71937;SDS011;59810;48.800;9.086;2022-08-19T07:36:40;26.20;;;16.50;;
71937;SDS011;59810;48.800;9.086;2022-08-19T07:39:11;25.17;;;15.30;;
71937;SDS011;59810;48.800;9.086;2022-08-19T07:41:39;22.20;;;14.13;;
71937;SDS011;59810;48.800;9.086;2022-08-19T07:44:04;24.98;;;15.25;;
71937;SDS011;59810;48.800;9.086;2022-08-19T07:46:33;23.33;;;15.53;;
71937;SDS011;59810;48.800;9.086;2022-08-19T07:49:00;23.90;;;14.90;;
71937;SDS011;59810;48.800;9.086;2022-08-19T07:51:26;26.13;;;14.88;;
71937;SDS011;59810;48.800;9.086;2022-08-19T07:53:52;25.85;;;14.98;;
71937;SDS011;59810;48.800;9.086;2022-08-19T07:56:18;24.57;;;14.57;;
71937;SDS011;59810;48.800;9.086;2022-08-19T07:58:45;25.38;;;15.95;;
71937;SDS011;59810;48.800;9.086;2022-08-19T08:01:14;23.13;;;14.65;;
71937;SDS011;59810;48.800;9.086;2022-08-19T08:03:42;24.33;;;14.57;;
71937;SDS011;59810;48.800;9.086;2022-08-19T08:06:26;24.63;;;14.87;;
71937;SDS011;59810;48.800;9.086;2022-08-19T08:09:11;24.77;;;15.25;;
71937;SDS011;59810;48.800;9.086;2022-08-19T08:11:38;23.17;;;14.77;;
71937;SDS011;59810;48.800;9.086;2022-08-19T08:14:05;24.75;;;15.00;;
71937;SDS011;59810;48.800;9.086;2022-08-19T08:16:35;24.83;;;14.65;;
71937;SDS011;59810;48.800;9.086;2022-08-19T08:19:05;22.97;;;14.83;;
71937;SDS011;59810;48.800;9.086;2022-08-19T08:21:31;23.40;;;14.25;;
71937;SDS011;59810;48.800;9.086;2022-08-19T08:23:57;21.67;;;14.30;;
71937;SDS011;59810;48.800;9.086;2022-08-19T08:26:23;22.67;;;13.93;;
71937;SDS011;59810;48.800;9.086;2022-08-19T08:28:49;21.17;;;13.18;;
71937;SDS011;59810;48.800;9.086;2022-08-19T08:31:15;22.92;;;14.13;;
71937;SDS011;59810;48.800;9.086;2022-08-19T08:33:41;23.00;;;15.03;;
71937;SDS011;59810;48.800;9.086;2022-08-19T08:36:07;23.27;;;14.73;;
71937;SDS011;59810;48.800;9.086;2022-08-19T08:38:33;22.52;;;14.55;;
71937;SDS011;59810;48.800;9.086;2022-08-19T08:41:02;20.47;;;13.60;;
71937;SDS011;59810;48.800;9.086;2022-08-19T08:43:53;22.25;;;13.55;;
71937;SDS011;59810;48.800;9.086;2022-08-19T08:46:30;22.33;;;15.00;;
71937;SDS011;59810;48.800;9.086;2022-08-19T08:49:20;23.13;;;13.15;;
71937;SDS011;59810;48.800;9.086;2022-08-19T08:52:21;24.02;;;13.38;;
71937;SDS011;59810;48.800;9.086;2022-08-19T08:54:48;20.50;;;13.63;;
71937;SDS011;59810;48.800;9.086;2022-08-19T09:00:07;26.92;;;13.65;;
71937;SDS011;59810;48.800;9.086;2022-08-19T09:02:37;20.58;;;13.10;;
71937;SDS011;59810;48.800;9.086;2022-08-19T09:05:03;21.20;;;13.00;;
71937;SDS011;59810;48.800;9.086;2022-08-19T09:16:10;19.13;;;12.35;;
71937;SDS011;59810;48.800;9.086;2022-08-19T09:18:43;21.03;;;13.63;;
71937;SDS011;59810;48.800;9.086;2022-08-19T09:21:09;18.90;;;12.80;;
71937;SDS011;59810;48.800;9.086;2022-08-19T09:23:35;22.23;;;14.07;;
71937;SDS011;59810;48.800;9.086;2022-08-19T09:26:22;23.70;;;12.83;;
71937;SDS011;59810;48.800;9.086;2022-08-19T09:28:49;19.58;;;12.60;;
71937;SDS011;59810;48.800;9.086;2022-08-19T09:31:21;21.65;;;13.85;;
71937;SDS011;59810;48.800;9.086;2022-08-19T09:33:48;21.45;;;12.73;;
71937;SDS011;59810;48.800;9.086;2022-08-19T09:36:15;18.38;;;12.43;;
71937;SDS011;59810;48.800;9.086;2022-08-19T09:38:42;20.33;;;12.83;;
71937;SDS011;59810;48.800;9.086;2022-08-19T09:41:09;18.58;;;11.80;;
71937;SDS011;59810;48.800;9.086;2022-08-19T09:43:38;22.52;;;12.07;;
71937;SDS011;59810;48.800;9.086;2022-08-19T09:46:05;20.25;;;12.15;;
71937;SDS011;59810;48.800;9.086;2022-08-19T09:48:34;17.58;;;11.15;;
71937;SDS011;59810;48.800;9.086;2022-08-19T09:51:04;16.50;;;11.40;;
71937;SDS011;59810;48.800;9.086;2022-08-19T09:53:33;18.52;;;11.70;;
71937;SDS011;59810;48.800;9.086;2022-08-19T09:55:59;16.77;;;11.18;;
71937;SDS011;59810;48.800;9.086;2022-08-19T09:58:25;16.63;;;10.82;;
71937;SDS011;59810;48.800;9.086;2022-08-19T10:00:53;22.35;;;11.55;;
71937;SDS011;59810;48.800;9.086;2022-08-19T10:03:19;20.30;;;11.67;;
71937;SDS011;59810;48.800;9.086;2022-08-19T10:05:48;17.88;;;11.10;;
71937;SDS011;59810;48.800;9.086;2022-08-19T10:08:15;22.40;;;10.85;;
71937;SDS011;59810;48.800;9.086;2022-08-19T10:10:45;16.92;;;10.77;;
71937;SDS011;59810;48.800;9.086;2022-08-19T10:13:10;16.40;;;10.63;;
71937;SDS011;59810;48.800;9.086;2022-08-19T10:15:39;19.38;;;11.25;;
71937;SDS011;59810;48.800;9.086;2022-08-19T10:18:07;17.17;;;10.77;;
71937;SDS011;59810;48.800;9.086;2022-08-19T10:20:33;16.00;;;11.07;;
71937;SDS011;59810;48.800;9.086;2022-08-19T10:23:01;15.47;;;10.33;;
71937;SDS011;59810;48.800;9.086;2022-08-19T10:25:28;17.48;;;11.32;;
71937;SDS011;59810;48.800;9.086;2022-08-19T10:27:53;17.27;;;10.25;;
71937;SDS011;59810;48.800;9.086;2022-08-19T10:30:19;16.50;;;9.97;;
71937;SDS011;59810;48.800;9.086;2022-08-19T10:32:47;14.77;;;9.30;;
71937;SDS011;59810;48.800;9.086;2022-08-19T10:35:13;16.02;;;10.25;;
71937;SDS011;59810;48.800;9.086;2022-08-19T10:37:39;14.90;;;9.85;;
71937;SDS011;59810;48.800;9.086;2022-08-19T10:40:05;15.30;;;9.13;;
71937;SDS011;59810;48.800;9.086;2022-08-19T10:42:33;15.40;;;9.63;;
71937;SDS011;59810;48.800;9.086;2022-08-19T10:45:02;16.10;;;9.10;;
71937;SDS011;59810;48.800;9.086;2022-08-19T10:47:31;16.40;;;9.18;;
71937;SDS011;59810;48.800;9.086;2022-08-19T10:50:01;15.20;;;9.03;;
71937;SDS011;59810;48.800;9.086;2022-08-19T10:52:46;15.02;;;9.02;;
71937;SDS011;59810;48.800;9.086;2022-08-19T10:55:13;14.98;;;9.18;;
71937;SDS011;59810;48.800;9.086;2022-08-19T10:57:57;14.55;;;9.15;;
71937;SDS011;59810;48.800;9.086;2022-08-19T11:00:26;13.15;;;8.93;;
71937;SDS011;59810;48.800;9.086;2022-08-19T11:02:51;12.77;;;8.70;;
71937;SDS011;59810;48.800;9.086;2022-08-19T11:05:17;13.95;;;8.77;;
71937;SDS011;59810;48.800;9.086;2022-08-19T11:07:43;13.27;;;8.93;;
71937;SDS011;59810;48.800;9.086;2022-08-19T11:10:10;14.05;;;9.30;;
71937;SDS011;59810;48.800;9.086;2022-08-19T11:12:41;14.98;;;8.43;;
71937;SDS011;59810;48.800;9.086;2022-08-19T11:15:07;14.95;;;8.43;;
71937;SDS011;59810;48.800;9.086;2022-08-19T11:17:37;13.63;;;8.48;;
71937;SDS011;59810;48.800;9.086;2022-08-19T11:20:08;13.03;;;8.70;;
71937;SDS011;59810;48.800;9.086;2022-08-19T11:22:37;13.57;;;8.38;;
71937;SDS011;59810;48.800;9.086;2022-08-19T11:25:04;13.55;;;8.80;;
71937;SDS011;59810;48.800;9.086;2022-08-19T11:27:32;14.00;;;8.73;;
71937;SDS011;59810;48.800;9.086;2022-08-19T11:29:57;14.13;;;8.37;;
71937;SDS011;59810;48.800;9.086;2022-08-19T11:32:22;12.80;;;8.30;;
71937;SDS011;59810;48.800;9.086;2022-08-19T11:34:48;13.20;;;8.33;;
71937;SDS011;59810;48.800;9.086;2022-08-19T11:37:13;14.55;;;8.10;;
71937;SDS011;59810;48.800;9.086;2022-08-19T11:39:39;14.07;;;8.50;;
71937;SDS011;59810;48.800;9.086;2022-08-19T11:42:05;14.35;;;7.82;;
71937;SDS011;59810;48.800;9.086;2022-08-19T11:44:51;12.77;;;8.25;;
71937;SDS011;59810;48.800;9.086;2022-08-19T11:47:17;11.97;;;7.90;;
71937;SDS011;59810;48.800;9.086;2022-08-19T11:49:42;12.97;;;8.20;;
71937;SDS011;59810;48.800;9.086;2022-08-19T11:52:10;15.20;;;7.93;;
71937;SDS011;59810;48.800;9.086;2022-08-19T11:54:35;12.63;;;7.60;;
71937;SDS011;59810;48.800;9.086;2022-08-19T11:57:04;12.23;;;8.20;;
71937;SDS011;59810;48.800;9.086;2022-08-19T11:59:29;11.48;;;7.03;;
71937;SDS011;59810;48.800;9.086;2022-08-19T12:01:55;10.53;;;7.30;;
71937;SDS011;59810;48.800;9.086;2022-08-19T12:04:21;14.63;;;7.57;;
71937;SDS011;59810;48.800;9.086;2022-08-19T12:06:47;11.50;;;7.45;;
71937;SDS011;59810;48.800;9.086;2022-08-19T12:09:13;11.45;;;7.38;;
71937;SDS011;59810;48.800;9.086;2022-08-19T12:11:40;10.20;;;7.15;;
71937;SDS011;59810;48.800;9.086;2022-08-19T12:14:06;10.97;;;7.50;;
71937;SDS011;59810;48.800;9.086;2022-08-19T12:16:34;10.95;;;7.25;;
71937;SDS011;59810;48.800;9.086;2022-08-19T12:19:00;10.83;;;6.80;;
71937;SDS011;59810;48.800;9.086;2022-08-19T12:21:29;10.52;;;7.25;;
71937;SDS011;59810;48.800;9.086;2022-08-19T12:23:56;11.05;;;7.20;;
71937;SDS011;59810;48.800;9.086;2022-08-19T12:26:24;11.98;;;7.18;;
71937;SDS011;59810;48.800;9.086;2022-08-19T12:28:51;12.93;;;7.70;;
71937;SDS011;59810;48.800;9.086;2022-08-19T12:31:16;12.10;;;7.13;;
71937;SDS011;59810;48.800;9.086;2022-08-19T12:33:43;9.05;;;6.93;;
71937;SDS011;59810;48.800;9.086;2022-08-19T12:36:10;11.57;;;6.17;;
71937;SDS011;59810;48.800;9.086;2022-08-19T12:38:40;10.65;;;6.57;;
71937;SDS011;59810;48.800;9.086;2022-08-19T12:41:06;10.25;;;6.55;;
71937;SDS011;59810;48.800;9.086;2022-08-19T12:43:34;10.68;;;6.20;;
71937;SDS011;59810;48.800;9.086;2022-08-19T12:46:03;11.38;;;6.30;;
71937;SDS011;59810;48.800;9.086;2022-08-19T12:48:30;8.50;;;6.00;;
71937;SDS011;59810;48.800;9.086;2022-08-19T12:50:55;11.32;;;6.45;;
71937;SDS011;59810;48.800;9.086;2022-08-19T12:53:23;9.50;;;6.40;;
71937;SDS011;59810;48.800;9.086;2022-08-19T12:55:56;9.82;;;6.07;;
71937;SDS011;59810;48.800;9.086;2022-08-19T12:58:23;11.35;;;6.18;;
71937;SDS011;59810;48.800;9.086;2022-08-19T13:00:48;9.80;;;5.93;;
71937;SDS011;59810;48.800;9.086;2022-08-19T13:03:13;8.17;;;5.77;;
71937;SDS011;59810;48.800;9.086;2022-08-19T13:05:40;8.52;;;5.75;;
71937;SDS011;59810;48.800;9.086;2022-08-19T13:08:05;9.97;;;5.80;;
71937;SDS011;59810;48.800;9.086;2022-08-19T13:10:31;9.40;;;6.00;;
71937;SDS011;59810;48.800;9.086;2022-08-19T13:13:02;9.18;;;5.85;;
71937;SDS011;59810;48.800;9.086;2022-08-19T13:15:32;10.98;;;6.38;;
71937;SDS011;59810;48.800;9.086;2022-08-19T13:17:58;10.10;;;5.68;;
71937;SDS011;59810;48.800;9.086;2022-08-19T13:20:24;9.57;;;5.47;;
71937;SDS011;59810;48.800;9.086;2022-08-19T13:22:50;8.30;;;5.90;;
71937;SDS011;59810;48.800;9.086;2022-08-19T13:25:16;8.48;;;5.75;;
71937;SDS011;59810;48.800;9.086;2022-08-19T13:27:49;7.70;;;5.80;;
71937;SDS011;59810;48.800;9.086;2022-08-19T13:30:16;11.18;;;6.13;;
71937;SDS011;59810;48.800;9.086;2022-08-19T13:33:01;9.35;;;5.80;;
71937;SDS011;59810;48.800;9.086;2022-08-19T13:35:49;9.02;;;5.80;;
71937;SDS011;59810;48.800;9.086;2022-08-19T13:38:20;10.05;;;6.00;;
71937;SDS011;59810;48.800;9.086;2022-08-19T13:40:47;9.83;;;6.00;;
71937;SDS011;59810;48.800;9.086;2022-08-19T13:43:14;8.73;;;5.43;;
71937;SDS011;59810;48.800;9.086;2022-08-19T13:45:40;8.27;;;5.40;;
71937;SDS011;59810;48.800;9.086;2022-08-19T13:48:06;8.70;;;5.57;;
71937;SDS011;59810;48.800;9.086;2022-08-19T13:50:33;12.30;;;5.95;;
71937;SDS011;59810;48.800;9.086;2022-08-19T13:53:10;9.35;;;6.03;;
71937;SDS011;59810;48.800;9.086;2022-08-19T13:55:40;9.27;;;5.68;;
71937;SDS011;59810;48.800;9.086;2022-08-19T13:58:07;11.40;;;6.78;;
71937;SDS011;59810;48.800;9.086;2022-08-19T14:00:34;11.07;;;6.27;;
71937;SDS011;59810;48.800;9.086;2022-08-19T14:03:01;10.45;;;6.95;;
71937;SDS011;59810;48.800;9.086;2022-08-19T14:05:30;14.35;;;8.27;;
71937;SDS011;59810;48.800;9.086;2022-08-19T14:07:56;14.57;;;8.73;;
71937;SDS011;59810;48.800;9.086;2022-08-19T14:10:22;10.20;;;7.65;;
71937;SDS011;59810;48.800;9.086;2022-08-19T14:12:49;13.90;;;7.57;;
71937;SDS011;59810;48.800;9.086;2022-08-19T14:15:17;12.23;;;8.05;;
71937;SDS011;59810;48.800;9.086;2022-08-19T14:17:43;11.90;;;8.07;;
71937;SDS011;59810;48.800;9.086;2022-08-19T14:20:11;12.95;;;7.68;;
71937;SDS011;59810;48.800;9.086;2022-08-19T14:22:38;11.10;;;8.20;;
71937;SDS011;59810;48.800;9.086;2022-08-19T14:25:08;12.32;;;8.30;;
71937;SDS011;59810;48.800;9.086;2022-08-19T14:27:36;11.18;;;7.75;;
71937;SDS011;59810;48.800;9.086;2022-08-19T14:30:06;9.80;;;7.00;;
71937;SDS011;59810;48.800;9.086;2022-08-19T14:32:33;10.77;;;7.68;;
71937;SDS011;59810;48.800;9.086;2022-08-19T14:35:00;10.65;;;7.60;;
71937;SDS011;59810;48.800;9.086;2022-08-19T14:37:25;11.82;;;8.00;;
71937;SDS011;59810;48.800;9.086;2022-08-19T14:39:51;12.37;;;8.03;;
71937;SDS011;59810;48.800;9.086;2022-08-19T14:42:19;9.30;;;6.70;;
71937;SDS011;59810;48.800;9.086;2022-08-19T14:44:46;9.50;;;6.38;;
71937;SDS011;59810;48.800;9.086;2022-08-19T14:47:14;11.23;;;6.77;;